Time,TemperatureF,DewpointF,PressureIn,WindDirection,WindDirectionDegrees,WindSpeedMPH,WindSpeedGustMPH,Humidity,HourlyPrecipIn,Conditions,Clouds,dailyrainin,SoftwareType,DateUTC
2013-05-22 00:05:00,57.9,50.4,29.65,WSW,246,0.0,0.0,76,0.00,,---,0.00,VWS V14.01,2013-05-22 05:05:00,
2013-05-22 00:35:00,56.8,50.4,29.64,WSW,246,0.0,0.0,79,0.00,,---,0.00,VWS V14.01,2013-05-22 05:35:00,
2013-05-22 01:05:00,56.0,50.6,29.64,WSW,246,0.0,0.0,82,0.00,,---,0.00,VWS V14.01,2013-05-22 06:05:00,
2013-05-22 01:35:00,57.1,52.0,29.64,West,275,0.0,9.0,83,0.00,,---,0.00,VWS V14.01,2013-05-22 06:35:00,
2013-05-22 02:05:00,58.2,52.7,29.64,SSE,159,3.0,9.0,82,0.00,,---,0.00,VWS V14.01,2013-05-22 07:05:00,
2013-05-22 02:35:00,58.3,53.2,29.65,SW,225,0.0,15.0,83,0.00,,---,0.00,VWS V14.01,2013-05-22 07:35:00,
2013-05-22 03:05:00,58.1,53.6,29.64,SW,228,3.0,12.0,85,0.00,,---,0.00,VWS V14.01,2013-05-22 08:05:00,
2013-05-22 03:35:00,58.0,53.8,29.64,West,267,9.0,15.0,86,0.00,,---,0.00,VWS V14.01,2013-05-22 08:35:00,
2013-05-22 04:05:00,57.5,53.7,29.64,WNW,285,6.0,24.0,87,0.00,,---,0.00,VWS V14.01,2013-05-22 09:05:00,
2013-05-22 04:35:00,57.4,53.6,29.63,West,264,6.0,21.0,87,0.00,,---,0.00,VWS V14.01,2013-05-22 09:35:00,
2013-05-22 05:05:00,56.2,53.6,29.63,West,259,0.0,18.0,91,0.00,,---,0.00,VWS V14.01,2013-05-22 10:05:00,
2013-05-22 05:35:00,55.6,53.3,29.63,WSW,242,0.0,18.0,92,0.00,,---,0.00,VWS V14.01,2013-05-22 10:35:00,
2013-05-22 06:05:00,55.7,53.1,29.62,West,261,3.0,15.0,91,0.00,,---,0.00,VWS V14.01,2013-05-22 11:05:00,
2013-05-22 06:35:00,55.7,52.5,29.63,NW,325,3.0,18.0,89,0.00,,---,0.00,VWS V14.01,2013-05-22 11:35:00,
2013-05-22 07:05:00,55.8,52.3,29.63,WNW,302,3.0,21.0,88,0.00,,---,0.00,VWS V14.01,2013-05-22 12:05:00,
2013-05-22 07:35:00,55.7,52.2,29.63,NW,306,9.0,18.0,88,0.00,,---,0.00,VWS V14.01,2013-05-22 12:35:00,
2013-05-22 08:05:00,55.9,52.4,29.64,WNW,291,3.0,18.0,88,0.00,,---,0.00,VWS V14.01,2013-05-22 13:05:00,
2013-05-22 08:35:00,55.6,52.4,29.65,WNW,284,3.0,18.0,89,0.00,,---,0.00,VWS V14.01,2013-05-22 13:35:00,
2013-05-22 09:05:00,55.5,52.9,29.66,WNW,288,6.0,18.0,91,0.00,,---,0.00,VWS V14.01,2013-05-22 14:05:00,
2013-05-22 09:35:00,56.4,53.8,29.66,SE,142,3.0,18.0,91,0.00,,---,0.00,VWS V14.01,2013-05-22 14:35:00,
2013-05-22 10:05:00,57.4,53.6,29.66,WSW,238,6.0,18.0,87,0.00,,---,0.00,VWS V14.01,2013-05-22 15:05:00,
2013-05-22 10:35:00,58.1,53.9,29.67,SSW,211,0.0,15.0,86,0.00,,---,0.00,VWS V14.01,2013-05-22 15:35:00,
2013-05-22 11:05:00,59.0,54.5,29.67,WNW,284,0.0,18.0,85,0.00,,---,0.00,VWS V14.01,2013-05-22 16:05:00,
2013-05-22 11:35:00,59.7,54.9,29.68,West,276,6.0,18.0,84,0.00,,---,0.00,VWS V14.01,2013-05-22 16:35:00,
2013-05-22 12:05:00,60.3,54.5,29.68,WSW,243,9.0,30.0,81,0.00,,---,0.00,VWS V14.01,2013-05-22 17:05:00,
2013-05-22 12:35:00,61.1,54.9,29.67,West,276,9.0,24.0,80,0.00,,---,0.00,VWS V14.01,2013-05-22 17:35:00,
2013-05-22 13:05:00,58.1,55.2,29.69,WNW,292,6.0,21.0,90,0.14,,---,0.14,VWS V14.01,2013-05-22 18:05:00,
2013-05-22 13:35:00,57.8,55.8,29.69,West,261,6.0,15.0,93,0.16,,---,0.16,VWS V14.01,2013-05-22 18:35:00,
2013-05-22 14:05:00,59.7,56.8,29.70,WNW,282,15.0,21.0,90,0.16,,---,0.16,VWS V14.01,2013-05-22 19:05:00,
2013-05-22 14:35:00,60.5,55.3,29.70,NNW,340,6.0,33.0,83,0.03,,---,0.17,VWS V14.01,2013-05-22 19:35:00,
2013-05-22 15:05:00,59.5,54.3,29.72,WSW,255,9.0,24.0,83,0.01,,---,0.17,VWS V14.01,2013-05-22 20:05:00,
2013-05-22 15:35:00,59.3,54.2,29.72,WSW,254,6.0,27.0,83,0.01,,---,0.17,VWS V14.01,2013-05-22 20:35:00,
2013-05-22 16:05:00,59.9,53.4,29.73,NNW,333,12.0,30.0,79,0.00,,---,0.17,VWS V14.01,2013-05-22 21:05:00,
2013-05-22 16:35:00,59.2,52.7,29.74,WNW,302,15.0,30.0,79,0.00,,---,0.17,VWS V14.01,2013-05-22 21:35:00,
2013-05-22 17:05:00,58.9,52.4,29.75,East,90,3.0,27.0,79,0.00,,---,0.17,VWS V14.01,2013-05-22 22:05:00,
2013-05-22 17:35:00,58.4,51.6,29.75,WNW,302,3.0,24.0,78,0.00,,---,0.17,VWS V14.01,2013-05-22 22:35:00,
2013-05-22 18:05:00,58.1,51.3,29.76,West,262,3.0,21.0,78,0.00,,---,0.17,VWS V14.01,2013-05-22 23:05:00,
2013-05-22 18:35:00,57.9,51.1,29.77,NW,304,3.0,21.0,78,0.00,,---,0.17,VWS V14.01,2013-05-22 23:35:00,
2013-05-22 19:05:00,57.2,50.4,29.78,West,281,15.0,27.0,78,0.00,,---,0.17,VWS V14.01,2013-05-23 00:05:00,
2013-05-22 19:35:00,56.8,50.0,29.79,SW,234,6.0,30.0,78,0.00,,---,0.17,VWS V14.01,2013-05-23 00:35:00,
2013-05-22 20:05:00,56.7,49.6,29.80,WNW,291,0.0,21.0,77,0.00,,---,0.17,VWS V14.01,2013-05-23 01:05:00,
2013-05-22 20:35:00,56.3,49.9,29.81,West,280,6.0,18.0,79,0.00,,---,0.17,VWS V14.01,2013-05-23 01:35:00,
2013-05-22 21:05:00,55.5,50.1,29.82,SE,132,6.0,24.0,82,0.00,,---,0.17,VWS V14.01,2013-05-23 02:05:00,
2013-05-22 21:35:00,55.2,49.8,29.83,ENE,60,6.0,18.0,82,0.00,,---,0.17,VWS V14.01,2013-05-23 02:35:00,
2013-05-22 22:05:00,55.0,50.3,29.84,WNW,296,6.0,21.0,84,0.00,,---,0.17,VWS V14.01,2013-05-23 03:05:00,
2013-05-22 22:35:00,54.7,50.3,29.85,West,265,0.0,30.0,85,0.00,,---,0.17,VWS V14.01,2013-05-23 03:35:00,
2013-05-22 23:05:00,54.0,50.8,29.85,West,280,6.0,21.0,89,0.00,,---,0.17,VWS V14.01,2013-05-23 04:05:00,
2013-05-22 23:35:00,53.8,50.6,29.86,WNW,300,6.0,24.0,89,0.00,,---,0.17,VWS V14.01,2013-05-23 04:35:00,